Time;durP1;ratioP1;P1;durP2;ratioP2;P2;SDS_P1;SDS_P2;PMS_P1;PMS_P2;Temp;Humidity;BMP_temperature;BMP_pressure;BME280_temperature;BME280_humidity;BME280_pressure;Samples;Min_cycle;Max_cycle;Signal;HPM_P1;HPM_P2
2023/06/26 00:01:51;;;;;;;8.13;7.30;;;22.60;95.00;;;;;;5139552;27;20042;-63
2023/06/26 00:04:16;;;;;;;8.57;7.18;;;22.60;95.10;;;;;;5120847;27;20079;-63
2023/06/26 00:06:42;;;;;;;7.40;6.70;;;22.60;95.20;;;;;;5126172;27;20043;-63
2023/06/26 00:09:08;;;;;;;9.55;7.35;;;22.60;95.30;;;;;;5134395;27;20035;-62
2023/06/26 00:11:33;;;;;;;8.95;8.05;;;22.60;95.30;;;;;;5143692;27;20434;-63
2023/06/26 00:14:01;;;;;;;11.40;7.90;;;22.60;95.40;;;;;;5123082;27;20031;-63
2023/06/26 00:16:27;;;;;;;8.82;7.95;;;22.60;95.40;;;;;;5135469;27;20045;-63
2023/06/26 00:18:53;;;;;;;11.35;8.15;;;22.60;95.40;;;;;;5130066;27;20117;-63
2023/06/26 00:21:19;;;;;;;9.60;7.78;;;22.60;95.40;;;;;;5117009;27;20039;-63
2023/06/26 00:23:45;;;;;;;8.57;7.65;;;22.60;95.40;;;;;;5128115;27;20053;-62
2023/06/26 00:26:11;;;;;;;8.63;7.82;;;22.60;95.40;;;;;;5146305;27;20034;-64
2023/06/26 00:28:37;;;;;;;8.15;7.35;;;22.60;95.60;;;;;;5124110;27;20519;-63
2023/06/26 00:31:03;;;;;;;8.40;7.60;;;22.50;95.90;;;;;;5144959;27;20138;-63
2023/06/26 00:33:29;;;;;;;9.50;8.15;;;22.50;95.70;;;;;;5124638;27;20043;-63
2023/06/26 00:35:54;;;;;;;9.18;8.27;;;22.50;95.80;;;;;;5141151;27;20066;-63
2023/06/26 00:38:20;;;;;;;9.43;8.18;;;22.50;95.80;;;;;;5143619;27;20038;-62
2023/06/26 00:40:46;;;;;;;9.52;8.00;;;22.50;95.90;;;;;;5128899;27;20039;-63
2023/06/26 00:43:12;;;;;;;9.57;8.68;;;22.40;95.90;;;;;;5145023;27;20442;-63
2023/06/26 00:45:38;;;;;;;8.95;7.80;;;22.40;95.90;;;;;;5142447;27;20458;-63
2023/06/26 00:48:04;;;;;;;10.07;8.88;;;22.40;96.10;;;;;;5128120;27;20110;-63
2023/06/26 00:50:29;;;;;;;9.32;8.43;;;22.40;96.20;;;;;;5122424;27;20039;-63
2023/06/26 00:53:00;;;;;;;9.20;8.27;;;22.40;96.20;;;;;;5125149;27;20042;-62
2023/06/26 00:55:26;;;;;;;8.82;7.93;;;22.30;96.30;;;;;;5130586;27;20047;-63
2023/06/26 00:57:52;;;;;;;9.38;8.48;;;22.30;96.60;;;;;;5134335;27;20508;-63
2023/06/26 01:00:18;;;;;;;11.43;9.27;;;22.30;96.90;;;;;;5149448;27;20046;-63
2023/06/26 01:02:44;;;;;;;9.45;8.55;;;22.30;96.90;;;;;;5148316;27;20050;-63
2023/06/26 01:05:12;;;;;;;10.73;8.48;;;22.20;97.10;;;;;;5146315;27;20043;-64
2023/06/26 01:07:39;;;;;;;11.02;10.02;;;22.20;97.30;;;;;;5151082;27;20122;-63
2023/06/26 01:10:07;;;;;;;11.48;9.73;;;22.20;97.40;;;;;;5123577;27;20051;-62
2023/06/26 01:12:33;;;;;;;11.27;10.07;;;22.10;97.40;;;;;;5128094;27;20171;-63
2023/06/26 01:15:00;;;;;;;10.57;9.23;;;22.10;97.50;;;;;;5127612;27;20035;-62
2023/06/26 01:17:31;;;;;;;10.25;9.32;;;22.00;97.70;;;;;;5145957;27;20131;-63
2023/06/26 01:20:01;;;;;;;11.30;10.20;;;22.00;97.80;;;;;;5139380;27;20028;-63
2023/06/26 01:22:45;;;;;;;11.15;10.05;;;22.00;98.00;;;;;;5132637;27;20027;-62
2023/06/26 01:25:38;;;;;;;10.65;9.55;;;21.90;98.20;;;;;;5129068;27;20045;-63
2023/06/26 01:28:08;;;;;;;10.75;9.65;;;21.90;98.70;;;;;;5127167;27;20039;-63
2023/06/26 01:30:38;;;;;;;10.05;9.07;;;21.90;98.90;;;;;;5149800;27;20479;-63
2023/06/26 01:33:04;;;;;;;11.25;9.90;;;21.80;99.00;;;;;;5126154;27;20422;-63
2023/06/26 01:35:30;;;;;;;10.50;9.48;;;21.80;99.20;;;;;;5141079;27;20083;-63
2023/06/26 01:38:16;;;;;;;10.98;9.88;;;21.70;99.20;;;;;;5123572;27;20042;-62
2023/06/26 01:40:43;;;;;;;10.50;9.38;;;21.70;99.80;;;;;;5124536;27;20039;-63
2023/06/26 01:43:15;;;;;;;11.35;10.25;;;21.60;99.90;;;;;;5123014;27;20073;-63
2023/06/26 01:45:43;;;;;;;10.57;9.48;;;21.60;99.90;;;;;;5134996;27;20126;-63
2023/06/26 01:48:12;;;;;;;11.05;9.95;;;21.60;99.90;;;;;;5143916;27;20047;-63
2023/06/26 01:50:39;;;;;;;11.63;9.85;;;21.50;99.90;;;;;;5144021;27;20031;-63
2023/06/26 01:53:16;;;;;;;10.77;9.77;;;21.50;99.90;;;;;;5137700;27;20087;-62
2023/06/26 01:55:50;;;;;;;10.88;9.88;;;21.50;99.90;;;;;;5147060;27;20099;-63
2023/06/26 01:58:20;;;;;;;11.40;10.20;;;21.40;99.90;;;;;;5122347;27;20740;-63
2023/06/26 02:00:46;;;;;;;11.75;10.65;;;21.40;99.90;;;;;;5139450;27;20062;-63
2023/06/26 02:03:12;;;;;;;11.05;9.57;;;21.40;99.90;;;;;;5147248;27;20043;-63
2023/06/26 02:05:37;;;;;;;11.13;10.02;;;21.30;99.90;;;;;;5148733;27;20465;-63
2023/06/26 02:08:04;;;;;;;11.90;10.80;;;21.30;99.90;;;;;;5142074;27;20043;-62
2023/06/26 02:10:30;;;;;;;11.70;10.43;;;21.30;99.90;;;;;;5134554;27;20064;-63
2023/06/26 02:12:55;;;;;;;12.05;9.60;;;21.30;99.90;;;;;;5146066;27;20070;-63
2023/06/26 02:15:21;;;;;;;11.30;10.15;;;21.20;99.90;;;;;;5151375;27;20034;-62
2023/06/26 02:17:48;;;;;;;12.60;10.20;;;21.20;99.90;;;;;;5152926;27;20039;-63
2023/06/26 02:20:15;;;;;;;11.55;10.43;;;21.10;99.90;;;;;;5130098;27;20490;-63
2023/06/26 02:22:41;;;;;;;10.38;9.30;;;21.10;99.90;;;;;;5148455;27;20045;-63
2023/06/26 02:25:06;;;;;;;10.18;9.25;;;21.00;99.90;;;;;;5132294;27;20392;-62
2023/06/26 02:27:32;;;;;;;11.40;9.93;;;21.00;99.90;;;;;;5124797;27;20035;-63
2023/06/26 02:29:58;;;;;;;11.05;9.95;;;20.90;99.90;;;;;;5146020;27;20456;-62
2023/06/26 02:32:23;;;;;;;11.82;10.63;;;20.90;99.90;;;;;;5126872;27;20051;-62
2023/06/26 02:34:51;;;;;;;12.05;10.93;;;20.90;99.90;;;;;;5141989;27;20117;-62
2023/06/26 02:37:17;;;;;;;11.05;9.93;;;20.90;99.90;;;;;;5125738;27;20049;-63
2023/06/26 02:39:43;;;;;;;14.30;12.85;;;20.80;99.90;;;;;;5129028;27;20039;-62
2023/06/26 02:42:08;;;;;;;13.32;11.98;;;20.70;99.90;;;;;;5120413;27;20035;-63
2023/06/26 02:44:34;;;;;;;11.73;10.63;;;20.70;99.90;;;;;;5145668;27;20054;-63
2023/06/26 02:47:00;;;;;;;14.05;11.60;;;20.60;99.90;;;;;;5128221;27;20066;-62
2023/06/26 02:49:25;;;;;;;11.60;10.52;;;20.60;99.90;;;;;;5120144;27;20043;-62
2023/06/26 02:51:51;;;;;;;12.27;11.02;;;20.60;99.90;;;;;;5146281;27;20027;-63
2023/06/26 02:54:17;;;;;;;12.18;10.93;;;20.50;99.90;;;;;;5119656;27;20088;-63
2023/06/26 02:56:42;;;;;;;13.40;12.07;;;20.50;99.90;;;;;;5145700;27;20038;-63
2023/06/26 02:59:08;;;;;;;11.52;10.50;;;20.40;99.90;;;;;;5120296;27;20039;-62
2023/06/26 03:01:34;;;;;;;12.50;10.57;;;20.50;99.90;;;;;;5136741;27;20062;-63
2023/06/26 03:04:00;;;;;;;11.88;10.52;;;20.40;99.90;;;;;;5145872;27;20174;-62
2023/06/26 03:06:27;;;;;;;11.50;10.40;;;20.40;99.90;;;;;;5142493;27;20043;-62
2023/06/26 03:08:53;;;;;;;13.32;11.13;;;20.40;99.90;;;;;;5123468;27;20117;-63
2023/06/26 03:11:19;;;;;;;12.35;10.75;;;20.40;99.90;;;;;;5141813;27;20141;-63
2023/06/26 03:13:44;;;;;;;11.85;10.18;;;20.40;99.90;;;;;;5126633;27;20023;-63
2023/06/26 03:16:10;;;;;;;11.15;10.05;;;20.50;99.90;;;;;;5119463;27;20034;-63
2023/06/26 03:18:35;;;;;;;13.30;10.07;;;20.50;99.90;;;;;;5142930;27;20031;-63
2023/06/26 03:21:01;;;;;;;11.43;10.15;;;20.60;99.90;;;;;;5131045;27;20035;-62
2023/06/26 03:23:27;;;;;;;12.52;9.48;;;20.60;99.90;;;;;;5123235;27;20039;-63
2023/06/26 03:25:53;;;;;;;14.38;10.07;;;20.60;99.90;;;;;;5144806;27;20031;-62
2023/06/26 03:28:19;;;;;;;10.68;8.95;;;20.70;99.90;;;;;;5121229;27;20054;-62
2023/06/26 03:30:44;;;;;;;10.48;9.38;;;20.70;99.90;;;;;;5121873;27;20498;-62
2023/06/26 03:33:10;;;;;;;9.38;8.40;;;20.80;99.90;;;;;;5125123;27;20042;-62
2023/06/26 03:35:36;;;;;;;10.98;9.18;;;20.80;99.90;;;;;;5136583;27;20114;-62
2023/06/26 03:38:03;;;;;;;12.20;8.52;;;20.80;99.90;;;;;;5142869;27;20117;-62
2023/06/26 03:40:28;;;;;;;9.90;8.23;;;20.80;99.90;;;;;;5118483;27;20047;-63
2023/06/26 03:42:54;;;;;;;11.18;8.27;;;20.80;99.90;;;;;;5131512;27;20102;-62
2023/06/26 03:45:20;;;;;;;9.32;8.43;;;20.80;99.90;;;;;;5142892;27;20035;-62
2023/06/26 03:47:48;;;;;;;11.43;7.90;;;20.90;99.90;;;;;;5136607;27;20050;-63
2023/06/26 03:50:17;;;;;;;8.98;8.07;;;20.90;99.90;;;;;;5136173;27;20030;-62
2023/06/26 03:52:43;;;;;;;8.70;7.80;;;21.00;99.90;;;;;;5118071;28;20078;-63
2023/06/26 03:55:09;;;;;;;9.48;7.93;;;21.00;99.90;;;;;;5148074;27;21537;-62
2023/06/26 03:57:35;;;;;;;8.48;7.63;;;21.00;99.90;;;;;;5106101;28;20054;-63
2023/06/26 04:00:01;;;;;;;10.07;8.07;;;21.00;99.90;;;;;;5125191;27;20058;-63
2023/06/26 04:02:27;;;;;;;11.85;7.35;;;21.10;99.90;;;;;;5124081;27;20074;-63
2023/06/26 04:04:52;;;;;;;10.35;7.30;;;21.10;99.90;;;;;;5142606;27;20401;-62
2023/06/26 04:07:19;;;;;;;8.45;7.00;;;21.10;99.90;;;;;;5145438;27;20506;-62
2023/06/26 04:09:44;;;;;;;11.13;7.60;;;21.10;99.90;;;;;;5137234;27;20031;-62
2023/06/26 04:12:10;;;;;;;10.68;7.53;;;21.10;99.90;;;;;;5130582;27;20049;-63
2023/06/26 04:14:36;;;;;;;11.32;7.30;;;21.10;99.90;;;;;;5145985;27;20163;-63
2023/06/26 04:17:03;;;;;;;11.48;7.35;;;21.10;99.90;;;;;;5148706;27;20043;-63
2023/06/26 04:19:29;;;;;;;9.52;7.07;;;21.10;99.90;;;;;;5122969;27;20113;-62
2023/06/26 04:21:55;;;;;;;9.13;7.03;;;21.10;99.90;;;;;;5122162;27;20404;-63
2023/06/26 04:24:20;;;;;;;13.27;7.40;;;21.00;99.90;;;;;;5150920;27;20122;-62
2023/06/26 04:26:46;;;;;;;12.05;6.65;;;21.00;99.90;;;;;;5130694;27;20042;-62
2023/06/26 04:29:11;;;;;;;13.75;7.47;;;21.00;99.90;;;;;;5126339;27;20479;-63
2023/06/26 04:31:38;;;;;;;13.60;7.22;;;20.90;99.90;;;;;;5149168;27;20059;-63
2023/06/26 04:34:04;;;;;;;12.68;7.82;;;20.90;99.90;;;;;;5131672;27;20066;-63
2023/06/26 04:36:31;;;;;;;12.63;7.10;;;20.90;99.90;;;;;;5128550;27;20058;-63
2023/06/26 04:38:57;;;;;;;13.32;7.13;;;20.80;99.90;;;;;;5140192;27;20031;-63
2023/06/26 04:41:23;;;;;;;14.68;7.22;;;20.80;99.90;;;;;;5142782;27;20031;-63
2023/06/26 04:43:48;;;;;;;13.93;7.22;;;20.80;99.90;;;;;;5144682;27;20039;-63
2023/06/26 04:46:14;;;;;;;17.15;7.63;;;20.70;99.90;;;;;;5134247;27;20043;-62
2023/06/26 04:48:39;;;;;;;15.30;6.97;;;20.80;99.90;;;;;;5139866;27;20103;-63
2023/06/26 04:51:05;;;;;;;12.57;6.63;;;20.70;99.90;;;;;;5140204;27;20066;-63
2023/06/26 04:53:31;;;;;;;11.98;7.03;;;20.70;99.90;;;;;;5153038;27;20035;-62
2023/06/26 04:55:56;;;;;;;14.48;7.05;;;20.70;99.90;;;;;;5139482;27;20444;-63
2023/06/26 04:58:22;;;;;;;14.55;7.70;;;20.60;99.90;;;;;;5123724;27;20041;-63
2023/06/26 05:00:48;;;;;;;13.13;6.78;;;20.60;99.90;;;;;;5125771;27;20402;-62
2023/06/26 05:03:16;;;;;;;15.85;7.68;;;20.50;99.90;;;;;;5148396;27;20039;-63
2023/06/26 05:05:42;;;;;;;14.07;7.10;;;20.50;99.90;;;;;;5148027;27;20118;-62
2023/06/26 05:08:15;;;;;;;15.98;7.05;;;20.50;99.90;;;;;;5129278;27;20439;-63
2023/06/26 05:10:41;;;;;;;15.65;7.63;;;20.40;99.90;;;;;;5111259;27;20049;-63
2023/06/26 05:13:06;;;;;;;15.10;6.88;;;20.40;99.90;;;;;;5139337;27;20384;-63
2023/06/26 05:15:32;;;;;;;13.23;7.18;;;20.40;99.90;;;;;;5148210;27;20050;-62
2023/06/26 05:17:58;;;;;;;12.50;7.25;;;20.30;99.90;;;;;;5129103;27;20038;-62
2023/06/26 05:20:23;;;;;;;13.77;7.18;;;20.30;99.90;;;;;;5134712;27;20135;-63
2023/06/26 05:22:50;;;;;;;14.60;7.63;;;20.20;99.90;;;;;;5128254;27;20146;-62
2023/06/26 05:25:17;;;;;;;12.45;7.10;;;20.30;99.90;;;;;;5142181;27;20141;-62
2023/06/26 05:27:43;;;;;;;12.10;7.07;;;20.30;99.90;;;;;;5132298;27;20047;-62
2023/06/26 05:30:09;;;;;;;13.07;7.18;;;20.20;99.90;;;;;;5124476;27;20050;-62
2023/06/26 05:32:37;;;;;;;12.35;7.10;;;20.20;99.90;;;;;;5128972;27;20080;-62
2023/06/26 05:35:06;;;;;;;13.75;7.25;;;20.20;99.90;;;;;;5129979;27;20046;-62
2023/06/26 05:37:33;;;;;;;14.00;6.97;;;20.20;99.90;;;;;;5145668;27;20126;-62
2023/06/26 05:39:59;;;;;;;12.73;6.72;;;20.20;99.90;;;;;;5126479;27;20485;-63
2023/06/26 05:42:26;;;;;;;11.15;6.13;;;20.30;99.90;;;;;;5140287;27;20706;-62
2023/06/26 05:44:51;;;;;;;12.45;5.80;;;20.30;99.90;;;;;;5127008;27;20389;-62
2023/06/26 05:47:17;;;;;;;11.75;4.40;;;20.30;99.90;;;;;;5126427;27;20039;-62
2023/06/26 05:49:42;;;;;;;9.05;4.13;;;20.30;99.90;;;;;;5149113;27;20135;-62
2023/06/26 05:52:09;;;;;;;7.03;3.67;;;20.30;99.90;;;;;;5124763;27;20042;-62
2023/06/26 05:54:35;;;;;;;8.82;3.55;;;20.50;99.90;;;;;;5148376;27;20026;-63
2023/06/26 05:57:01;;;;;;;7.18;2.83;;;20.50;99.90;;;;;;5145387;27;20042;-62
2023/06/26 05:59:27;;;;;;;7.75;2.53;;;20.70;99.90;;;;;;5149503;27;20035;-62
2023/06/26 06:01:53;;;;;;;6.10;2.30;;;20.70;99.90;;;;;;5146545;27;20404;-63
2023/06/26 06:04:18;;;;;;;5.70;1.98;;;20.70;99.90;;;;;;5144253;27;20110;-62
2023/06/26 06:06:44;;;;;;;5.38;1.98;;;20.70;99.90;;;;;;5128220;27;20062;-62
2023/06/26 06:09:10;;;;;;;5.47;2.15;;;20.70;99.90;;;;;;5128744;27;20037;-63
2023/06/26 06:11:36;;;;;;;5.80;1.80;;;20.70;99.90;;;;;;5126504;27;20039;-62
2023/06/26 06:14:02;;;;;;;4.13;1.70;;;20.70;99.90;;;;;;5126427;27;20062;-62
2023/06/26 06:16:29;;;;;;;6.13;2.25;;;20.80;99.90;;;;;;5121444;27;20115;-62
2023/06/26 06:18:55;;;;;;;3.40;1.55;;;20.80;99.90;;;;;;5128098;27;20084;-62
2023/06/26 06:21:20;;;;;;;5.13;1.65;;;20.80;99.90;;;;;;5143175;27;20039;-62
2023/06/26 06:23:46;;;;;;;4.57;1.85;;;20.80;99.90;;;;;;5119904;27;20046;-62
2023/06/26 06:26:12;;;;;;;5.10;1.85;;;20.80;99.90;;;;;;5124050;27;20039;-62
2023/06/26 06:28:39;;;;;;;5.13;1.77;;;20.90;99.90;;;;;;5140857;27;20077;-63
2023/06/26 06:31:04;;;;;;;4.43;2.35;;;20.90;99.90;;;;;;5126261;27;20035;-62
2023/06/26 06:33:30;;;;;;;6.10;1.90;;;21.00;99.90;;;;;;5138454;27;20092;-63
2023/06/26 06:35:56;;;;;;;3.90;1.65;;;21.00;99.90;;;;;;5128942;27;20495;-62
2023/06/26 06:38:22;;;;;;;5.50;1.90;;;21.10;99.90;;;;;;5128270;27;20070;-62
2023/06/26 06:40:47;;;;;;;3.05;1.63;;;21.20;99.90;;;;;;5133531;27;20043;-63
2023/06/26 06:43:13;;;;;;;4.22;1.90;;;21.20;99.90;;;;;;5144883;27;20031;-63
2023/06/26 06:45:39;;;;;;;4.47;1.88;;;21.40;99.90;;;;;;5147347;27;20038;-62
2023/06/26 06:48:05;;;;;;;6.72;1.85;;;21.50;99.90;;;;;;5123311;27;20260;-63
2023/06/26 06:50:31;;;;;;;5.03;2.17;;;21.40;99.90;;;;;;5127073;27;20561;-62
2023/06/26 06:52:56;;;;;;;5.25;2.17;;;21.40;99.90;;;;;;5151586;27;20042;-63
2023/06/26 06:55:23;;;;;;;3.58;1.63;;;21.40;99.90;;;;;;5144239;27;20039;-63
2023/06/26 06:57:50;;;;;;;3.97;1.90;;;21.50;99.90;;;;;;5137745;27;20047;-63
2023/06/26 07:00:16;;;;;;;4.82;1.73;;;21.60;99.90;;;;;;5127387;27;20076;-63
2023/06/26 07:02:45;;;;;;;3.78;1.60;;;21.70;99.90;;;;;;5124969;27;20050;-62
2023/06/26 07:05:12;;;;;;;7.47;1.88;;;21.80;99.90;;;;;;5120976;27;20046;-62
2023/06/26 07:07:39;;;;;;;4.60;1.92;;;22.00;99.90;;;;;;5129070;27;20195;-62
2023/06/26 07:10:07;;;;;;;3.45;1.65;;;22.20;99.90;;;;;;5120804;27;20065;-62
2023/06/26 07:12:33;;;;;;;3.55;1.70;;;22.30;99.90;;;;;;5125941;27;20088;-63
2023/06/26 07:15:00;;;;;;;2.63;1.70;;;22.40;99.90;;;;;;5108934;27;20485;-63
2023/06/26 07:17:26;;;;;;;4.80;1.63;;;22.50;99.90;;;;;;5127217;27;20048;-62
2023/06/26 07:19:51;;;;;;;2.58;1.60;;;22.50;99.90;;;;;;5143110;27;20109;-62
2023/06/26 07:22:20;;;;;;;5.57;1.70;;;22.40;99.90;;;;;;5138697;27;20508;-62
2023/06/26 07:24:46;;;;;;;4.47;1.50;;;22.30;99.90;;;;;;5147274;27;20091;-62
2023/06/26 07:27:12;;;;;;;5.40;1.70;;;22.30;99.90;;;;;;5141648;27;20035;-63
2023/06/26 07:29:37;;;;;;;2.58;1.35;;;22.50;99.90;;;;;;5140199;27;20039;-63
2023/06/26 07:32:03;;;;;;;3.33;1.42;;;22.50;99.90;;;;;;5119928;27;20081;-62
2023/06/26 07:34:29;;;;;;;3.92;1.33;;;22.60;99.90;;;;;;5124301;27;20072;-61
2023/06/26 07:36:54;;;;;;;6.43;1.42;;;22.60;99.80;;;;;;5145268;27;20121;-62
2023/06/26 07:39:20;;;;;;;3.85;1.20;;;22.60;99.50;;;;;;5142942;27;20431;-63
2023/06/26 07:41:45;;;;;;;2.75;1.55;;;22.70;99.10;;;;;;5131351;27;20066;-62
2023/06/26 07:44:11;;;;;;;2.65;1.30;;;22.70;98.50;;;;;;5138418;27;20395;-62
2023/06/26 07:46:37;;;;;;;2.70;1.20;;;22.60;98.20;;;;;;5124566;27;20050;-64
2023/06/26 07:49:02;;;;;;;2.40;1.27;;;22.70;98.40;;;;;;5109321;27;20031;-63
2023/06/26 07:51:28;;;;;;;3.90;1.52;;;22.70;99.10;;;;;;5138704;27;20557;-62
2023/06/26 07:53:53;;;;;;;4.88;1.60;;;22.80;99.40;;;;;;5120810;27;20076;-63
2023/06/26 07:56:19;;;;;;;3.05;1.40;;;22.80;99.00;;;;;;5126679;27;20102;-64
2023/06/26 07:58:45;;;;;;;3.60;1.42;;;22.90;99.00;;;;;;5117702;28;20096;-63
2023/06/26 08:01:10;;;;;;;5.55;1.45;;;22.80;98.80;;;;;;5119976;28;20087;-65
2023/06/26 08:03:36;;;;;;;4.93;1.85;;;22.50;99.30;;;;;;5119974;28;20062;-64
2023/06/26 08:06:03;;;;;;;3.60;1.58;;;22.30;99.90;;;;;;5121598;28;20046;-62
2023/06/26 08:08:29;;;;;;;3.03;1.50;;;22.40;99.90;;;;;;5122389;28;20075;-61
2023/06/26 08:10:54;;;;;;;4.63;1.85;;;22.30;99.90;;;;;;5123435;28;20063;-63
2023/06/26 08:13:20;;;;;;;3.25;1.50;;;22.30;99.90;;;;;;5122604;28;20089;-62
2023/06/26 08:15:46;;;;;;;5.45;1.60;;;22.50;99.90;;;;;;5117825;28;20419;-63
2023/06/26 08:18:11;;;;;;;4.38;1.70;;;22.70;99.90;;;;;;5127287;28;20036;-63
2023/06/26 08:20:37;;;;;;;5.30;1.70;;;22.70;99.50;;;;;;5121322;28;20050;-63
2023/06/26 08:23:04;;;;;;;3.03;1.58;;;22.70;99.40;;;;;;5119104;28;20073;-63
2023/06/26 08:25:29;;;;;;;7.03;1.70;;;22.50;99.90;;;;;;5118806;28;20644;-63
2023/06/26 08:27:55;;;;;;;2.70;1.35;;;22.30;99.80;;;;;;5119263;28;20061;-62
2023/06/26 08:30:21;;;;;;;4.47;1.92;;;22.20;99.90;;;;;;5123887;28;20051;-62
2023/06/26 08:32:47;;;;;;;3.50;1.67;;;22.40;99.90;;;;;;5118074;28;20031;-63
2023/06/26 08:35:12;;;;;;;5.20;1.73;;;22.40;99.90;;;;;;5118278;28;20043;-63
2023/06/26 08:37:38;;;;;;;4.75;1.80;;;22.40;99.90;;;;;;5119645;28;20486;-63
2023/06/26 08:40:04;;;;;;;4.13;1.80;;;22.30;99.80;;;;;;5124833;28;20493;-63
2023/06/26 08:42:30;;;;;;;5.20;1.90;;;22.10;99.90;;;;;;5124907;28;20035;-63
2023/06/26 08:44:56;;;;;;;4.78;1.80;;;22.10;99.90;;;;;;5114752;28;20355;-63
2023/06/26 08:47:22;;;;;;;3.67;1.48;;;22.10;99.90;;;;;;5128047;28;20066;-63
2023/06/26 08:50:00;;;;;;;4.15;1.92;;;22.00;99.90;;;;;;5120679;28;20095;-63
2023/06/26 08:52:34;;;;;;;5.10;2.05;;;22.10;99.90;;;;;;5125484;28;20031;-62
2023/06/26 08:55:02;;;;;;;4.95;2.00;;;22.10;99.90;;;;;;5118807;28;20035;-63
2023/06/26 08:57:30;;;;;;;3.45;1.90;;;21.90;99.90;;;;;;5125512;27;20073;-62
2023/06/26 08:59:56;;;;;;;9.07;2.90;;;22.00;99.90;;;;;;5125340;27;20481;-64
2023/06/26 09:02:22;;;;;;;4.88;2.00;;;22.00;99.90;;;;;;5137506;27;20070;-64
2023/06/26 09:04:49;;;;;;;6.25;2.35;;;21.90;99.90;;;;;;5140097;27;20043;-63
2023/06/26 09:07:15;;;;;;;4.18;1.92;;;21.90;99.90;;;;;;5137794;27;20158;-63
2023/06/26 09:09:40;;;;;;;5.63;2.00;;;22.20;99.90;;;;;;5127300;27;20501;-63
2023/06/26 09:12:08;;;;;;;4.22;2.13;;;22.50;99.90;;;;;;5128706;27;20074;-62
2023/06/26 09:14:34;;;;;;;3.35;2.20;;;22.40;99.90;;;;;;5125151;27;20422;-62
2023/06/26 09:16:59;;;;;;;6.03;2.65;;;22.10;99.90;;;;;;5127794;27;20071;-62
2023/06/26 09:19:26;;;;;;;5.03;2.60;;;22.30;99.90;;;;;;5143422;27;20085;-62
2023/06/26 09:21:52;;;;;;;6.47;2.08;;;22.50;99.90;;;;;;5125591;27;20035;-63
2023/06/26 09:24:17;;;;;;;6.70;2.03;;;23.00;99.90;;;;;;5127733;27;20050;-63
2023/06/26 09:26:43;;;;;;;5.78;2.72;;;23.40;99.90;;;;;;5139898;27;20057;-62
2023/06/26 09:29:09;;;;;;;6.38;2.08;;;23.50;98.90;;;;;;5142651;27;20042;-63
2023/06/26 09:31:39;;;;;;;4.43;1.85;;;23.70;98.40;;;;;;5125629;27;20436;-63
2023/06/26 09:34:05;;;;;;;5.50;2.22;;;23.60;97.70;;;;;;5132796;27;20438;-63
2023/06/26 09:36:32;;;;;;;3.03;1.80;;;23.70;97.20;;;;;;5137212;27;20087;-63
2023/06/26 09:39:04;;;;;;;4.40;1.90;;;23.30;96.80;;;;;;5116991;27;20061;-62
2023/06/26 09:41:30;;;;;;;3.60;2.05;;;23.50;97.50;;;;;;5118426;27;21796;-64
2023/06/26 09:44:00;;;;;;;4.20;2.10;;;23.70;97.20;;;;;;5117097;27;20447;-63
2023/06/26 09:46:27;;;;;;;4.53;2.13;;;23.80;96.20;;;;;;5118584;27;20182;-63
2023/06/26 09:49:05;;;;;;;5.03;2.03;;;23.40;97.00;;;;;;5143221;27;20031;-62
2023/06/26 09:51:35;;;;;;;3.20;1.70;;;23.30;96.30;;;;;;5108129;27;20039;-62
2023/06/26 09:54:02;;;;;;;4.97;2.10;;;23.50;96.60;;;;;;5118492;27;20049;-63
2023/06/26 09:56:29;;;;;;;5.68;2.10;;;23.90;96.10;;;;;;5134707;27;20088;-63
2023/06/26 09:59:00;;;;;;;6.35;2.47;;;24.10;95.30;;;;;;5126554;27;20450;-63
2023/06/26 10:01:28;;;;;;;8.07;3.03;;;23.90;95.60;;;;;;5125495;27;20061;-62
2023/06/26 10:03:57;;;;;;;6.68;2.17;;;24.00;96.10;;;;;;5128807;27;20058;-63
2023/06/26 10:06:32;;;;;;;4.50;1.98;;;24.20;95.60;;;;;;5143271;27;20435;-62
2023/06/26 10:09:00;;;;;;;7.65;1.92;;;24.30;94.00;;;;;;5121958;27;20047;-62
2023/06/26 10:11:34;;;;;;;6.00;2.25;;;24.40;92.80;;;;;;5128492;27;20113;-62
2023/06/26 10:14:03;;;;;;;5.05;1.80;;;24.30;91.90;;;;;;5145920;27;20520;-63
2023/06/26 10:16:31;;;;;;;5.55;2.00;;;24.50;93.00;;;;;;5123332;27;20422;-63
2023/06/26 10:19:04;;;;;;;8.82;2.10;;;24.30;93.40;;;;;;5129897;27;20039;-62
2023/06/26 10:21:31;;;;;;;3.63;2.30;;;23.70;93.90;;;;;;5128465;27;20438;-63
2023/06/26 10:23:57;;;;;;;7.03;2.42;;;23.10;94.80;;;;;;5119669;27;20508;-63
2023/06/26 10:26:26;;;;;;;4.15;2.35;;;22.70;95.20;;;;;;5142182;27;20031;-62
2023/06/26 10:28:54;;;;;;;5.90;2.22;;;22.80;95.70;;;;;;5123041;27;20385;-63
2023/06/26 10:31:22;;;;;;;5.22;2.70;;;23.10;96.00;;;;;;5122329;27;20046;-64
2023/06/26 10:33:49;;;;;;;5.38;2.45;;;23.20;96.20;;;;;;5123770;27;20038;-62
2023/06/26 10:36:18;;;;;;;7.05;2.33;;;23.00;96.30;;;;;;5145372;27;20073;-62
2023/06/26 10:38:57;;;;;;;3.90;1.88;;;22.90;96.80;;;;;;5146848;27;20117;-63
2023/06/26 10:41:24;;;;;;;6.25;1.77;;;23.20;96.10;;;;;;5127872;27;20091;-63
2023/06/26 10:43:59;;;;;;;4.07;1.60;;;23.50;94.60;;;;;;5124009;27;20051;-63
2023/06/26 10:46:25;;;;;;;5.72;2.05;;;23.70;92.80;;;;;;5128537;27;20039;-62
2023/06/26 10:49:00;;;;;;;3.65;1.73;;;23.80;93.80;;;;;;5127363;27;20173;-63
2023/06/26 10:51:27;;;;;;;5.03;1.70;;;24.10;92.90;;;;;;5119877;27;20043;-64
2023/06/26 10:53:57;;;;;;;5.70;1.60;;;24.20;91.40;;;;;;5119237;27;20039;-63
2023/06/26 10:56:58;;;;;;;7.43;1.80;;;24.40;90.90;;;;;;5123941;27;20046;-63
2023/06/26 10:59:26;;;;;;;7.47;2.08;;;24.50;91.30;;;;;;5042130;28;20096;-64
2023/06/26 11:01:59;;;;;;;4.07;1.80;;;24.00;91.00;;;;;;5060730;28;21964;-62
2023/06/26 11:04:45;;;;;;;7.25;1.73;;;24.20;91.50;;;;;;5041022;28;20049;-62
2023/06/26 11:07:24;;;;;;;3.35;1.73;;;23.80;90.70;;;;;;5036326;28;20452;-63
2023/06/26 11:10:00;;;;;;;9.07;2.13;;;23.70;91.10;;;;;;5039525;28;20052;-63
2023/06/26 11:12:41;;;;;;;6.22;1.50;;;23.80;92.30;;;;;;5040136;28;20033;-63
2023/06/26 11:15:10;;;;;;;8.52;1.52;;;23.70;90.80;;;;;;5052531;28;20084;-62
2023/06/26 11:17:37;;;;;;;8.43;2.03;;;23.80;91.10;;;;;;5036493;28;20106;-62
2023/06/26 11:20:07;;;;;;;5.10;1.60;;;23.90;91.10;;;;;;5042976;28;20084;-62
2023/06/26 11:22:36;;;;;;;3.85;1.38;;;24.00;90.90;;;;;;5061216;28;20044;-62
2023/06/26 11:25:03;;;;;;;5.22;1.40;;;23.80;89.50;;;;;;5048741;28;20478;-63
2023/06/26 11:27:44;;;;;;;4.65;1.10;;;23.80;89.10;;;;;;5034212;28;20045;-62
2023/06/26 11:30:22;;;;;;;3.70;1.20;;;24.00;89.00;;;;;;5042384;28;20101;-62
2023/06/26 11:32:47;;;;;;;3.17;1.30;;;24.20;90.00;;;;;;5055901;28;20291;-64
2023/06/26 11:35:13;;;;;;;6.13;1.30;;;24.20;90.90;;;;;;5112159;27;20046;-63
2023/06/26 11:37:39;;;;;;;3.83;1.05;;;24.20;90.20;;;;;;5137905;27;20393;-63
2023/06/26 11:40:19;;;;;;;7.93;1.27;;;24.00;88.50;;;;;;5118121;27;20058;-63
2023/06/26 11:42:44;;;;;;;2.35;1.08;;;24.10;87.00;;;;;;5123258;27;20054;-62
2023/06/26 11:45:10;;;;;;;7.57;1.40;;;24.00;88.90;;;;;;5125545;27;20035;-63
2023/06/26 11:47:39;;;;;;;5.30;1.10;;;24.00;89.00;;;;;;5118900;27;20043;-63
2023/06/26 11:50:05;;;;;;;5.13;1.45;;;24.00;87.40;;;;;;5142891;27;20030;-63
2023/06/26 11:52:33;;;;;;;4.03;1.20;;;24.20;88.40;;;;;;5123476;27;20031;-63
2023/06/26 11:54:58;;;;;;;3.55;1.10;;;24.20;87.90;;;;;;5121862;27;20075;-62
2023/06/26 11:57:24;;;;;;;3.03;1.10;;;24.20;87.70;;;;;;5122537;27;20120;-62
2023/06/26 11:59:51;;;;;;;5.10;1.17;;;24.00;87.50;;;;;;5141604;27;20070;-63
2023/06/26 12:02:17;;;;;;;2.80;0.90;;;23.60;85.00;;;;;;5120645;27;20483;-63
2023/06/26 12:04:44;;;;;;;4.57;1.38;;;23.30;85.90;;;;;;5147546;27;20165;-63
2023/06/26 12:07:12;;;;;;;7.47;1.40;;;23.10;86.90;;;;;;5144226;27;20069;-62
2023/06/26 12:09:46;;;;;;;10.07;2.13;;;23.00;87.90;;;;;;5123350;27;20035;-63
2023/06/26 12:12:14;;;;;;;5.75;1.10;;;23.10;89.30;;;;;;5123253;27;20046;-62
2023/06/26 12:14:40;;;;;;;5.85;1.30;;;23.00;89.30;;;;;;5138102;27;20393;-62
2023/06/26 12:17:10;;;;;;;8.48;1.20;;;22.90;88.00;;;;;;5147972;27;20047;-63
2023/06/26 12:19:38;;;;;;;5.53;1.33;;;22.70;87.80;;;;;;5116765;27;20043;-63
2023/06/26 12:22:08;;;;;;;6.32;1.52;;;22.70;88.50;;;;;;5118102;27;20043;-62
2023/06/26 12:24:37;;;;;;;4.90;1.52;;;22.80;90.00;;;;;;5125717;27;20034;-62
2023/06/26 12:27:07;;;;;;;4.72;1.27;;;22.70;90.40;;;;;;5119393;27;20084;-63
2023/06/26 12:29:33;;;;;;;4.93;1.27;;;22.70;90.80;;;;;;5120540;27;20035;-62
2023/06/26 12:32:00;;;;;;;2.33;1.15;;;22.70;90.60;;;;;;5124595;27;20030;-62
2023/06/26 12:34:28;;;;;;;3.30;1.10;;;22.60;90.60;;;;;;5141323;27;20038;-61
2023/06/26 12:37:03;;;;;;;8.05;1.40;;;22.50;91.10;;;;;;5140081;27;20507;-63
2023/06/26 12:39:29;;;;;;;5.47;1.13;;;22.50;91.00;;;;;;5125924;27;20430;-62
2023/06/26 12:42:00;;;;;;;4.85;1.00;;;22.50;90.60;;;;;;5107717;27;20042;-62
2023/06/26 12:44:30;;;;;;;3.57;1.10;;;22.50;90.30;;;;;;5134660;27;20508;-63